sensor_id;sensor_type;location;lat;lon;timestamp;P1;durP1;ratioP1;P2;durP2;ratioP2
5483;SDS011;2764;48.794;8.326;2022-08-20T00:00:33;1.70;;;1.60;;
5483;SDS011;2764;48.794;8.326;2022-08-20T00:01:37;3.07;;;1.50;;
5483;SDS011;2764;48.794;8.326;2022-08-20T00:02:42;2.37;;;1.53;;
5483;SDS011;2764;48.794;8.326;2022-08-20T00:03:49;1.70;;;1.60;;
5483;SDS011;2764;48.794;8.326;2022-08-20T00:04:53;1.87;;;1.77;;
5483;SDS011;2764;48.794;8.326;2022-08-20T00:05:56;1.70;;;1.60;;
5483;SDS011;2764;48.794;8.326;2022-08-20T00:07:18;1.40;;;1.40;;
5483;SDS011;2764;48.794;8.326;2022-08-20T00:08:20;1.27;;;1.27;;
5483;SDS011;2764;48.794;8.326;2022-08-20T00:09:22;1.43;;;1.43;;
5483;SDS011;2764;48.794;8.326;2022-08-20T00:10:24;2.00;;;1.67;;
5483;SDS011;2764;48.794;8.326;2022-08-20T00:11:27;1.67;;;1.57;;
5483;SDS011;2764;48.794;8.326;2022-08-20T00:12:29;1.67;;;1.57;;
5483;SDS011;2764;48.794;8.326;2022-08-20T00:13:37;2.80;;;1.50;;
5483;SDS011;2764;48.794;8.326;2022-08-20T00:14:42;1.80;;;1.70;;
5483;SDS011;2764;48.794;8.326;2022-08-20T00:15:44;8.30;;;1.57;;
5483;SDS011;2764;48.794;8.326;2022-08-20T00:16:46;1.90;;;1.80;;
5483;SDS011;2764;48.794;8.326;2022-08-20T00:17:48;2.13;;;2.00;;
5483;SDS011;2764;48.794;8.326;2022-08-20T00:18:51;3.03;;;1.77;;
5483;SDS011;2764;48.794;8.326;2022-08-20T00:19:53;6.90;;;1.70;;
5483;SDS011;2764;48.794;8.326;2022-08-20T00:20:55;2.00;;;1.83;;
5483;SDS011;2764;48.794;8.326;2022-08-20T00:21:58;1.63;;;1.53;;
5483;SDS011;2764;48.794;8.326;2022-08-20T00:22:59;1.80;;;1.70;;
5483;SDS011;2764;48.794;8.326;2022-08-20T00:24:02;1.70;;;1.70;;
5483;SDS011;2764;48.794;8.326;2022-08-20T00:25:04;3.67;;;1.80;;
5483;SDS011;2764;48.794;8.326;2022-08-20T00:26:07;1.83;;;1.73;;
5483;SDS011;2764;48.794;8.326;2022-08-20T00:27:10;1.00;;;1.00;;
5483;SDS011;2764;48.794;8.326;2022-08-20T00:28:12;1.67;;;1.57;;
5483;SDS011;2764;48.794;8.326;2022-08-20T00:29:14;1.67;;;1.60;;
5483;SDS011;2764;48.794;8.326;2022-08-20T00:30:20;1.77;;;1.67;;
5483;SDS011;2764;48.794;8.326;2022-08-20T00:31:23;2.70;;;1.83;;
5483;SDS011;2764;48.794;8.326;2022-08-20T00:32:25;1.90;;;1.80;;
5483;SDS011;2764;48.794;8.326;2022-08-20T00:33:26;2.00;;;1.90;;
5483;SDS011;2764;48.794;8.326;2022-08-20T00:34:28;2.00;;;1.90;;
5483;SDS011;2764;48.794;8.326;2022-08-20T00:35:32;1.67;;;1.57;;
5483;SDS011;2764;48.794;8.326;2022-08-20T00:36:35;2.13;;;2.03;;
5483;SDS011;2764;48.794;8.326;2022-08-20T00:37:37;4.60;;;1.77;;
5483;SDS011;2764;48.794;8.326;2022-08-20T00:38:40;2.40;;;1.90;;
5483;SDS011;2764;48.794;8.326;2022-08-20T00:39:43;2.03;;;1.90;;
5483;SDS011;2764;48.794;8.326;2022-08-20T00:40:47;1.80;;;1.70;;
5483;SDS011;2764;48.794;8.326;2022-08-20T00:41:51;2.20;;;2.10;;
5483;SDS011;2764;48.794;8.326;2022-08-20T00:42:54;2.03;;;1.93;;
5483;SDS011;2764;48.794;8.326;2022-08-20T00:45:02;4.67;;;1.67;;
5483;SDS011;2764;48.794;8.326;2022-08-20T00:46:10;1.80;;;1.80;;
5483;SDS011;2764;48.794;8.326;2022-08-20T00:47:18;1.60;;;1.50;;
5483;SDS011;2764;48.794;8.326;2022-08-20T00:48:21;2.60;;;1.90;;
5483;SDS011;2764;48.794;8.326;2022-08-20T00:49:28;2.00;;;1.90;;
5483;SDS011;2764;48.794;8.326;2022-08-20T00:50:33;1.57;;;1.57;;
5483;SDS011;2764;48.794;8.326;2022-08-20T00:51:41;5.00;;;1.60;;
5483;SDS011;2764;48.794;8.326;2022-08-20T00:52:47;2.70;;;1.50;;
5483;SDS011;2764;48.794;8.326;2022-08-20T00:53:51;2.60;;;1.67;;
5483;SDS011;2764;48.794;8.326;2022-08-20T00:54:54;2.03;;;1.83;;
5483;SDS011;2764;48.794;8.326;2022-08-20T00:55:59;2.10;;;1.87;;
5483;SDS011;2764;48.794;8.326;2022-08-20T00:57:08;1.97;;;1.83;;
5483;SDS011;2764;48.794;8.326;2022-08-20T00:58:12;2.10;;;2.00;;
5483;SDS011;2764;48.794;8.326;2022-08-20T00:59:17;2.30;;;1.90;;
5483;SDS011;2764;48.794;8.326;2022-08-20T01:00:29;2.97;;;1.73;;
5483;SDS011;2764;48.794;8.326;2022-08-20T01:01:38;2.07;;;1.97;;
5483;SDS011;2764;48.794;8.326;2022-08-20T01:02:56;1.73;;;1.63;;
5483;SDS011;2764;48.794;8.326;2022-08-20T01:03:58;8.20;;;1.90;;
5483;SDS011;2764;48.794;8.326;2022-08-20T01:05:00;2.30;;;2.10;;
5483;SDS011;2764;48.794;8.326;2022-08-20T01:06:02;1.83;;;1.73;;
5483;SDS011;2764;48.794;8.326;2022-08-20T01:07:05;1.97;;;1.87;;
5483;SDS011;2764;48.794;8.326;2022-08-20T01:08:07;1.93;;;1.83;;
5483;SDS011;2764;48.794;8.326;2022-08-20T01:09:09;2.30;;;1.93;;
5483;SDS011;2764;48.794;8.326;2022-08-20T01:10:13;2.00;;;1.90;;
5483;SDS011;2764;48.794;8.326;2022-08-20T01:11:19;1.70;;;1.60;;
5483;SDS011;2764;48.794;8.326;2022-08-20T01:12:26;5.70;;;1.97;;
5483;SDS011;2764;48.794;8.326;2022-08-20T01:13:29;2.00;;;1.90;;
5483;SDS011;2764;48.794;8.326;2022-08-20T01:14:32;3.70;;;1.83;;
5483;SDS011;2764;48.794;8.326;2022-08-20T01:15:34;2.97;;;2.00;;
5483;SDS011;2764;48.794;8.326;2022-08-20T01:16:43;2.50;;;2.30;;
5483;SDS011;2764;48.794;8.326;2022-08-20T01:17:50;5.90;;;2.40;;
5483;SDS011;2764;48.794;8.326;2022-08-20T01:18:55;3.43;;;1.83;;
5483;SDS011;2764;48.794;8.326;2022-08-20T01:20:07;2.07;;;1.97;;
5483;SDS011;2764;48.794;8.326;2022-08-20T01:21:12;1.80;;;1.70;;
5483;SDS011;2764;48.794;8.326;2022-08-20T01:22:16;1.97;;;1.80;;
5483;SDS011;2764;48.794;8.326;2022-08-20T01:25:00;2.00;;;1.90;;
5483;SDS011;2764;48.794;8.326;2022-08-20T01:27:09;2.80;;;2.10;;
5483;SDS011;2764;48.794;8.326;2022-08-20T01:28:12;2.80;;;2.40;;
5483;SDS011;2764;48.794;8.326;2022-08-20T01:29:17;2.50;;;1.93;;
5483;SDS011;2764;48.794;8.326;2022-08-20T01:30:23;2.30;;;2.20;;
5483;SDS011;2764;48.794;8.326;2022-08-20T01:31:28;4.00;;;2.27;;
5483;SDS011;2764;48.794;8.326;2022-08-20T01:32:32;11.20;;;2.80;;
5483;SDS011;2764;48.794;8.326;2022-08-20T01:33:34;3.03;;;2.70;;
5483;SDS011;2764;48.794;8.326;2022-08-20T01:34:36;2.53;;;2.43;;
5483;SDS011;2764;48.794;8.326;2022-08-20T01:35:39;2.53;;;2.43;;
5483;SDS011;2764;48.794;8.326;2022-08-20T01:36:44;1.70;;;1.60;;
5483;SDS011;2764;48.794;8.326;2022-08-20T01:37:48;2.33;;;2.23;;
5483;SDS011;2764;48.794;8.326;2022-08-20T01:38:50;2.87;;;2.67;;
5483;SDS011;2764;48.794;8.326;2022-08-20T01:39:55;2.90;;;2.70;;
5483;SDS011;2764;48.794;8.326;2022-08-20T01:42:30;3.20;;;3.00;;
5483;SDS011;2764;48.794;8.326;2022-08-20T01:43:57;3.27;;;2.40;;
5483;SDS011;2764;48.794;8.326;2022-08-20T01:45:00;3.13;;;2.40;;
5483;SDS011;2764;48.794;8.326;2022-08-20T01:46:04;3.10;;;2.40;;
5483;SDS011;2764;48.794;8.326;2022-08-20T01:47:08;3.50;;;3.30;;
5483;SDS011;2764;48.794;8.326;2022-08-20T01:48:21;2.93;;;2.70;;
5483;SDS011;2764;48.794;8.326;2022-08-20T01:49:27;2.67;;;2.50;;
5483;SDS011;2764;48.794;8.326;2022-08-20T01:50:31;2.30;;;2.20;;
5483;SDS011;2764;48.794;8.326;2022-08-20T01:51:35;2.83;;;2.73;;
5483;SDS011;2764;48.794;8.326;2022-08-20T01:53:43;3.00;;;2.67;;
5483;SDS011;2764;48.794;8.326;2022-08-20T01:54:47;2.63;;;2.50;;
5483;SDS011;2764;48.794;8.326;2022-08-20T01:55:49;3.10;;;2.60;;
5483;SDS011;2764;48.794;8.326;2022-08-20T01:56:56;3.37;;;3.17;;
5483;SDS011;2764;48.794;8.326;2022-08-20T01:58:04;3.00;;;2.80;;
5483;SDS011;2764;48.794;8.326;2022-08-20T01:59:09;2.97;;;2.87;;
5483;SDS011;2764;48.794;8.326;2022-08-20T02:00:40;2.70;;;2.60;;
5483;SDS011;2764;48.794;8.326;2022-08-20T02:01:51;4.20;;;2.73;;
5483;SDS011;2764;48.794;8.326;2022-08-20T02:02:54;3.27;;;3.07;;
5483;SDS011;2764;48.794;8.326;2022-08-20T02:03:56;2.70;;;2.50;;
5483;SDS011;2764;48.794;8.326;2022-08-20T02:04:57;2.70;;;2.60;;
5483;SDS011;2764;48.794;8.326;2022-08-20T02:06:01;3.97;;;2.63;;
5483;SDS011;2764;48.794;8.326;2022-08-20T02:07:04;4.33;;;2.67;;
5483;SDS011;2764;48.794;8.326;2022-08-20T02:08:07;3.43;;;3.23;;
5483;SDS011;2764;48.794;8.326;2022-08-20T02:09:09;4.57;;;2.83;;
5483;SDS011;2764;48.794;8.326;2022-08-20T02:10:16;4.03;;;3.10;;
5483;SDS011;2764;48.794;8.326;2022-08-20T02:11:19;4.00;;;2.60;;
5483;SDS011;2764;48.794;8.326;2022-08-20T02:12:21;2.80;;;2.60;;
5483;SDS011;2764;48.794;8.326;2022-08-20T02:13:22;3.57;;;3.37;;
5483;SDS011;2764;48.794;8.326;2022-08-20T02:14:25;3.57;;;3.37;;
5483;SDS011;2764;48.794;8.326;2022-08-20T02:15:27;3.47;;;3.27;;
5483;SDS011;2764;48.794;8.326;2022-08-20T02:16:39;4.80;;;2.67;;
5483;SDS011;2764;48.794;8.326;2022-08-20T02:17:43;3.10;;;2.90;;
5483;SDS011;2764;48.794;8.326;2022-08-20T02:18:45;7.10;;;3.20;;
5483;SDS011;2764;48.794;8.326;2022-08-20T02:19:49;4.13;;;2.93;;
5483;SDS011;2764;48.794;8.326;2022-08-20T02:20:55;3.30;;;3.00;;
5483;SDS011;2764;48.794;8.326;2022-08-20T02:21:58;5.23;;;3.63;;
5483;SDS011;2764;48.794;8.326;2022-08-20T02:23:03;3.47;;;3.27;;
5483;SDS011;2764;48.794;8.326;2022-08-20T02:24:05;3.43;;;3.33;;
5483;SDS011;2764;48.794;8.326;2022-08-20T02:25:10;3.60;;;3.40;;
5483;SDS011;2764;48.794;8.326;2022-08-20T02:26:12;3.17;;;3.07;;
5483;SDS011;2764;48.794;8.326;2022-08-20T02:27:14;3.60;;;3.40;;
5483;SDS011;2764;48.794;8.326;2022-08-20T02:28:17;4.60;;;4.00;;
5483;SDS011;2764;48.794;8.326;2022-08-20T02:29:20;3.53;;;3.23;;
5483;SDS011;2764;48.794;8.326;2022-08-20T02:30:32;3.47;;;3.17;;
5483;SDS011;2764;48.794;8.326;2022-08-20T02:31:37;4.03;;;3.73;;
5483;SDS011;2764;48.794;8.326;2022-08-20T02:33:01;4.10;;;3.70;;
5483;SDS011;2764;48.794;8.326;2022-08-20T02:34:06;3.30;;;3.20;;
5483;SDS011;2764;48.794;8.326;2022-08-20T02:35:23;8.33;;;3.60;;
5483;SDS011;2764;48.794;8.326;2022-08-20T02:36:26;3.53;;;3.30;;
5483;SDS011;2764;48.794;8.326;2022-08-20T02:37:28;3.43;;;3.13;;
5483;SDS011;2764;48.794;8.326;2022-08-20T02:38:29;3.73;;;3.43;;
5483;SDS011;2764;48.794;8.326;2022-08-20T02:39:31;4.50;;;4.10;;
5483;SDS011;2764;48.794;8.326;2022-08-20T02:40:34;4.50;;;3.20;;
5483;SDS011;2764;48.794;8.326;2022-08-20T02:41:36;4.23;;;4.00;;
5483;SDS011;2764;48.794;8.326;2022-08-20T02:42:38;5.23;;;3.63;;
5483;SDS011;2764;48.794;8.326;2022-08-20T02:43:42;3.60;;;3.37;;
5483;SDS011;2764;48.794;8.326;2022-08-20T02:44:43;4.47;;;3.60;;
5483;SDS011;2764;48.794;8.326;2022-08-20T02:45:45;4.70;;;3.33;;
5483;SDS011;2764;48.794;8.326;2022-08-20T02:46:47;5.23;;;3.70;;
5483;SDS011;2764;48.794;8.326;2022-08-20T02:47:50;5.00;;;4.50;;
5483;SDS011;2764;48.794;8.326;2022-08-20T02:48:54;5.37;;;4.30;;
5483;SDS011;2764;48.794;8.326;2022-08-20T02:49:56;5.10;;;3.60;;
5483;SDS011;2764;48.794;8.326;2022-08-20T02:51:01;5.00;;;3.60;;
5483;SDS011;2764;48.794;8.326;2022-08-20T02:52:05;5.53;;;4.00;;
5483;SDS011;2764;48.794;8.326;2022-08-20T02:53:07;3.60;;;3.40;;
5483;SDS011;2764;48.794;8.326;2022-08-20T02:54:09;4.03;;;3.60;;
5483;SDS011;2764;48.794;8.326;2022-08-20T02:55:11;4.50;;;4.10;;
5483;SDS011;2764;48.794;8.326;2022-08-20T02:56:27;4.00;;;3.70;;
5483;SDS011;2764;48.794;8.326;2022-08-20T02:57:29;4.27;;;3.97;;
5483;SDS011;2764;48.794;8.326;2022-08-20T02:58:31;3.50;;;3.20;;
5483;SDS011;2764;48.794;8.326;2022-08-20T02:59:32;3.43;;;3.20;;
5483;SDS011;2764;48.794;8.326;2022-08-20T03:00:34;3.70;;;3.53;;
5483;SDS011;2764;48.794;8.326;2022-08-20T03:01:39;4.27;;;3.87;;
5483;SDS011;2764;48.794;8.326;2022-08-20T03:02:40;6.07;;;4.13;;
5483;SDS011;2764;48.794;8.326;2022-08-20T03:03:43;4.77;;;4.47;;
5483;SDS011;2764;48.794;8.326;2022-08-20T03:04:45;4.80;;;2.93;;
5483;SDS011;2764;48.794;8.326;2022-08-20T03:05:48;3.80;;;3.50;;
5483;SDS011;2764;48.794;8.326;2022-08-20T03:06:51;6.10;;;4.30;;
5483;SDS011;2764;48.794;8.326;2022-08-20T03:07:53;6.10;;;3.33;;
5483;SDS011;2764;48.794;8.326;2022-08-20T03:08:56;4.00;;;3.70;;
5483;SDS011;2764;48.794;8.326;2022-08-20T03:09:58;4.70;;;3.70;;
5483;SDS011;2764;48.794;8.326;2022-08-20T03:11:00;7.40;;;4.50;;
5483;SDS011;2764;48.794;8.326;2022-08-20T03:12:03;4.80;;;3.30;;
5483;SDS011;2764;48.794;8.326;2022-08-20T03:13:07;5.70;;;3.93;;
5483;SDS011;2764;48.794;8.326;2022-08-20T03:14:12;4.00;;;3.67;;
5483;SDS011;2764;48.794;8.326;2022-08-20T03:15:14;4.73;;;3.70;;
5483;SDS011;2764;48.794;8.326;2022-08-20T03:16:18;4.10;;;3.80;;
5483;SDS011;2764;48.794;8.326;2022-08-20T03:17:19;8.50;;;4.70;;
5483;SDS011;2764;48.794;8.326;2022-08-20T03:18:22;4.60;;;4.30;;
5483;SDS011;2764;48.794;8.326;2022-08-20T03:19:26;5.07;;;4.17;;
5483;SDS011;2764;48.794;8.326;2022-08-20T03:20:28;4.10;;;3.53;;
5483;SDS011;2764;48.794;8.326;2022-08-20T03:21:30;3.80;;;3.60;;
5483;SDS011;2764;48.794;8.326;2022-08-20T03:22:32;4.27;;;3.97;;
5483;SDS011;2764;48.794;8.326;2022-08-20T03:23:34;6.73;;;4.20;;
5483;SDS011;2764;48.794;8.326;2022-08-20T03:24:40;3.90;;;3.70;;
5483;SDS011;2764;48.794;8.326;2022-08-20T03:25:42;4.80;;;4.40;;
5483;SDS011;2764;48.794;8.326;2022-08-20T03:26:44;5.17;;;3.87;;
5483;SDS011;2764;48.794;8.326;2022-08-20T03:27:46;11.20;;;4.33;;
5483;SDS011;2764;48.794;8.326;2022-08-20T03:28:54;4.10;;;3.80;;
5483;SDS011;2764;48.794;8.326;2022-08-20T03:29:56;3.80;;;3.50;;
5483;SDS011;2764;48.794;8.326;2022-08-20T03:30:57;3.63;;;3.40;;
5483;SDS011;2764;48.794;8.326;2022-08-20T03:31:59;4.53;;;4.10;;
5483;SDS011;2764;48.794;8.326;2022-08-20T03:33:07;4.00;;;3.77;;
5483;SDS011;2764;48.794;8.326;2022-08-20T03:34:09;3.33;;;3.13;;
5483;SDS011;2764;48.794;8.326;2022-08-20T03:35:12;4.50;;;4.10;;
5483;SDS011;2764;48.794;8.326;2022-08-20T03:36:16;4.27;;;3.97;;
5483;SDS011;2764;48.794;8.326;2022-08-20T03:37:29;4.13;;;3.93;;
5483;SDS011;2764;48.794;8.326;2022-08-20T03:38:32;3.90;;;3.40;;
5483;SDS011;2764;48.794;8.326;2022-08-20T03:39:35;4.30;;;4.00;;
5483;SDS011;2764;48.794;8.326;2022-08-20T03:40:37;4.90;;;4.50;;
5483;SDS011;2764;48.794;8.326;2022-08-20T03:41:39;5.10;;;3.73;;
5483;SDS011;2764;48.794;8.326;2022-08-20T03:42:41;6.33;;;4.07;;
5483;SDS011;2764;48.794;8.326;2022-08-20T03:43:43;4.30;;;4.00;;
5483;SDS011;2764;48.794;8.326;2022-08-20T03:44:45;5.27;;;4.30;;
5483;SDS011;2764;48.794;8.326;2022-08-20T03:45:58;4.40;;;4.10;;
5483;SDS011;2764;48.794;8.326;2022-08-20T03:47:02;6.10;;;4.27;;
5483;SDS011;2764;48.794;8.326;2022-08-20T03:48:13;4.70;;;4.30;;
5483;SDS011;2764;48.794;8.326;2022-08-20T03:49:17;4.10;;;3.80;;
5483;SDS011;2764;48.794;8.326;2022-08-20T03:50:23;5.43;;;4.27;;
5483;SDS011;2764;48.794;8.326;2022-08-20T03:51:27;6.10;;;4.57;;
5483;SDS011;2764;48.794;8.326;2022-08-20T03:52:53;5.20;;;4.20;;
5483;SDS011;2764;48.794;8.326;2022-08-20T03:53:57;4.17;;;3.97;;
5483;SDS011;2764;48.794;8.326;2022-08-20T03:54:59;4.43;;;4.13;;
5483;SDS011;2764;48.794;8.326;2022-08-20T03:56:02;4.87;;;4.47;;
5483;SDS011;2764;48.794;8.326;2022-08-20T03:57:07;4.10;;;3.83;;
5483;SDS011;2764;48.794;8.326;2022-08-20T03:58:13;4.30;;;4.00;;
5483;SDS011;2764;48.794;8.326;2022-08-20T03:59:17;5.20;;;4.70;;
5483;SDS011;2764;48.794;8.326;2022-08-20T04:00:20;7.23;;;4.53;;
5483;SDS011;2764;48.794;8.326;2022-08-20T04:01:24;4.73;;;4.43;;
5483;SDS011;2764;48.794;8.326;2022-08-20T04:02:46;4.53;;;3.80;;
5483;SDS011;2764;48.794;8.326;2022-08-20T04:03:47;10.13;;;4.57;;
5483;SDS011;2764;48.794;8.326;2022-08-20T04:04:55;6.20;;;3.90;;
5483;SDS011;2764;48.794;8.326;2022-08-20T04:05:56;4.40;;;4.07;;
5483;SDS011;2764;48.794;8.326;2022-08-20T04:06:59;4.60;;;4.20;;
5483;SDS011;2764;48.794;8.326;2022-08-20T04:08:01;4.40;;;4.10;;
5483;SDS011;2764;48.794;8.326;2022-08-20T04:09:03;9.67;;;4.90;;
5483;SDS011;2764;48.794;8.326;2022-08-20T04:10:07;5.13;;;4.27;;
5483;SDS011;2764;48.794;8.326;2022-08-20T04:11:11;4.10;;;3.80;;
5483;SDS011;2764;48.794;8.326;2022-08-20T04:12:13;6.00;;;4.47;;
5483;SDS011;2764;48.794;8.326;2022-08-20T04:13:16;7.33;;;5.00;;
5483;SDS011;2764;48.794;8.326;2022-08-20T04:14:21;4.97;;;4.67;;
5483;SDS011;2764;48.794;8.326;2022-08-20T04:15:23;4.47;;;4.07;;
5483;SDS011;2764;48.794;8.326;2022-08-20T04:16:24;5.20;;;4.70;;
5483;SDS011;2764;48.794;8.326;2022-08-20T04:17:27;4.43;;;4.13;;
5483;SDS011;2764;48.794;8.326;2022-08-20T04:18:29;7.13;;;4.70;;
5483;SDS011;2764;48.794;8.326;2022-08-20T04:19:31;4.00;;;3.80;;
5483;SDS011;2764;48.794;8.326;2022-08-20T04:20:35;8.37;;;3.90;;
5483;SDS011;2764;48.794;8.326;2022-08-20T04:21:39;5.83;;;4.07;;
5483;SDS011;2764;48.794;8.326;2022-08-20T04:22:40;6.67;;;4.47;;
5483;SDS011;2764;48.794;8.326;2022-08-20T04:23:56;6.50;;;4.30;;
5483;SDS011;2764;48.794;8.326;2022-08-20T04:24:58;4.37;;;3.83;;
5483;SDS011;2764;48.794;8.326;2022-08-20T04:26:00;4.60;;;4.20;;
5483;SDS011;2764;48.794;8.326;2022-08-20T04:27:02;5.67;;;4.50;;
5483;SDS011;2764;48.794;8.326;2022-08-20T04:28:06;4.67;;;4.43;;
5483;SDS011;2764;48.794;8.326;2022-08-20T04:29:12;5.27;;;4.00;;
5483;SDS011;2764;48.794;8.326;2022-08-20T04:30:15;4.23;;;3.83;;
5483;SDS011;2764;48.794;8.326;2022-08-20T04:31:18;4.23;;;3.80;;
5483;SDS011;2764;48.794;8.326;2022-08-20T04:32:25;4.40;;;4.10;;
5483;SDS011;2764;48.794;8.326;2022-08-20T04:33:27;4.63;;;4.23;;
5483;SDS011;2764;48.794;8.326;2022-08-20T04:34:35;3.90;;;3.70;;
5483;SDS011;2764;48.794;8.326;2022-08-20T04:35:37;4.73;;;4.33;;
5483;SDS011;2764;48.794;8.326;2022-08-20T04:36:39;4.47;;;4.20;;
5483;SDS011;2764;48.794;8.326;2022-08-20T04:37:41;4.73;;;4.33;;
5483;SDS011;2764;48.794;8.326;2022-08-20T04:38:43;7.00;;;4.43;;
5483;SDS011;2764;48.794;8.326;2022-08-20T04:39:53;4.43;;;4.13;;
5483;SDS011;2764;48.794;8.326;2022-08-20T04:41:14;3.90;;;3.60;;
5483;SDS011;2764;48.794;8.326;2022-08-20T04:42:24;4.10;;;3.90;;
5483;SDS011;2764;48.794;8.326;2022-08-20T04:43:32;3.73;;;3.53;;
5483;SDS011;2764;48.794;8.326;2022-08-20T04:44:36;4.73;;;4.27;;
5483;SDS011;2764;48.794;8.326;2022-08-20T04:45:37;4.63;;;4.23;;
5483;SDS011;2764;48.794;8.326;2022-08-20T04:46:41;5.97;;;4.97;;
5483;SDS011;2764;48.794;8.326;2022-08-20T04:47:43;5.47;;;4.93;;
5483;SDS011;2764;48.794;8.326;2022-08-20T04:48:46;3.70;;;3.50;;
5483;SDS011;2764;48.794;8.326;2022-08-20T04:49:50;5.53;;;4.17;;
5483;SDS011;2764;48.794;8.326;2022-08-20T04:50:57;9.50;;;4.00;;
5483;SDS011;2764;48.794;8.326;2022-08-20T04:52:01;5.10;;;4.70;;
5483;SDS011;2764;48.794;8.326;2022-08-20T04:53:04;6.30;;;4.07;;
5483;SDS011;2764;48.794;8.326;2022-08-20T04:54:07;5.07;;;4.63;;
5483;SDS011;2764;48.794;8.326;2022-08-20T04:55:09;7.50;;;4.33;;
5483;SDS011;2764;48.794;8.326;2022-08-20T04:56:11;4.27;;;4.07;;
5483;SDS011;2764;48.794;8.326;2022-08-20T04:57:13;4.20;;;3.90;;
5483;SDS011;2764;48.794;8.326;2022-08-20T04:58:19;5.53;;;4.50;;
5483;SDS011;2764;48.794;8.326;2022-08-20T04:59:27;6.83;;;4.53;;
5483;SDS011;2764;48.794;8.326;2022-08-20T05:00:29;4.00;;;3.70;;
5483;SDS011;2764;48.794;8.326;2022-08-20T05:01:31;4.33;;;4.13;;
5483;SDS011;2764;48.794;8.326;2022-08-20T05:02:33;7.33;;;4.47;;
5483;SDS011;2764;48.794;8.326;2022-08-20T05:03:36;4.20;;;3.90;;
5483;SDS011;2764;48.794;8.326;2022-08-20T05:04:39;4.80;;;4.40;;
5483;SDS011;2764;48.794;8.326;2022-08-20T05:05:41;4.97;;;4.57;;
5483;SDS011;2764;48.794;8.326;2022-08-20T05:06:44;3.97;;;3.70;;
5483;SDS011;2764;48.794;8.326;2022-08-20T05:07:49;9.60;;;4.77;;
5483;SDS011;2764;48.794;8.326;2022-08-20T05:08:51;4.47;;;4.17;;
5483;SDS011;2764;48.794;8.326;2022-08-20T05:09:54;10.03;;;4.30;;
5483;SDS011;2764;48.794;8.326;2022-08-20T05:10:56;5.40;;;4.53;;
5483;SDS011;2764;48.794;8.326;2022-08-20T05:12:17;4.43;;;4.03;;
5483;SDS011;2764;48.794;8.326;2022-08-20T05:13:19;4.50;;;4.10;;
5483;SDS011;2764;48.794;8.326;2022-08-20T05:14:27;5.43;;;4.20;;
5483;SDS011;2764;48.794;8.326;2022-08-20T05:15:29;9.50;;;4.30;;
5483;SDS011;2764;48.794;8.326;2022-08-20T05:16:31;4.33;;;3.97;;
5483;SDS011;2764;48.794;8.326;2022-08-20T05:17:39;4.60;;;4.23;;
5483;SDS011;2764;48.794;8.326;2022-08-20T05:18:41;4.50;;;4.20;;
5483;SDS011;2764;48.794;8.326;2022-08-20T05:19:43;8.03;;;4.80;;
5483;SDS011;2764;48.794;8.326;2022-08-20T05:20:47;5.17;;;4.30;;
5483;SDS011;2764;48.794;8.326;2022-08-20T05:21:49;4.50;;;4.20;;
5483;SDS011;2764;48.794;8.326;2022-08-20T05:22:53;4.43;;;4.10;;
5483;SDS011;2764;48.794;8.326;2022-08-20T05:23:56;5.37;;;4.87;;
5483;SDS011;2764;48.794;8.326;2022-08-20T05:24:57;7.47;;;4.70;;
5483;SDS011;2764;48.794;8.326;2022-08-20T05:26:02;4.50;;;4.20;;
5483;SDS011;2764;48.794;8.326;2022-08-20T05:27:07;6.20;;;4.70;;
5483;SDS011;2764;48.794;8.326;2022-08-20T05:28:21;6.70;;;4.60;;
5483;SDS011;2764;48.794;8.326;2022-08-20T05:29:24;5.80;;;4.77;;
5483;SDS011;2764;48.794;8.326;2022-08-20T05:30:27;5.33;;;4.27;;
5483;SDS011;2764;48.794;8.326;2022-08-20T05:31:34;7.90;;;4.70;;
5483;SDS011;2764;48.794;8.326;2022-08-20T05:32:36;4.77;;;4.43;;
5483;SDS011;2764;48.794;8.326;2022-08-20T05:33:45;9.60;;;4.97;;
5483;SDS011;2764;48.794;8.326;2022-08-20T05:34:46;4.67;;;4.37;;
5483;SDS011;2764;48.794;8.326;2022-08-20T05:35:49;6.10;;;5.03;;
5483;SDS011;2764;48.794;8.326;2022-08-20T05:36:53;4.93;;;4.50;;
5483;SDS011;2764;48.794;8.326;2022-08-20T05:37:55;7.43;;;4.57;;
5483;SDS011;2764;48.794;8.326;2022-08-20T05:38:58;4.50;;;4.10;;
5483;SDS011;2764;48.794;8.326;2022-08-20T05:39:59;4.77;;;4.23;;
5483;SDS011;2764;48.794;8.326;2022-08-20T05:41:03;5.13;;;4.73;;
5483;SDS011;2764;48.794;8.326;2022-08-20T05:42:06;7.60;;;4.63;;
5483;SDS011;2764;48.794;8.326;2022-08-20T05:43:08;12.37;;;5.20;;
5483;SDS011;2764;48.794;8.326;2022-08-20T05:44:09;6.80;;;4.90;;
5483;SDS011;2764;48.794;8.326;2022-08-20T05:45:13;5.03;;;4.20;;
5483;SDS011;2764;48.794;8.326;2022-08-20T05:46:17;4.83;;;4.40;;
5483;SDS011;2764;48.794;8.326;2022-08-20T05:47:19;11.90;;;4.40;;
5483;SDS011;2764;48.794;8.326;2022-08-20T05:48:24;6.07;;;4.43;;
5483;SDS011;2764;48.794;8.326;2022-08-20T05:49:25;4.00;;;3.63;;
5483;SDS011;2764;48.794;8.326;2022-08-20T05:50:27;4.40;;;4.10;;
5483;SDS011;2764;48.794;8.326;2022-08-20T05:51:29;4.63;;;4.07;;
5483;SDS011;2764;48.794;8.326;2022-08-20T05:52:30;4.37;;;4.10;;
5483;SDS011;2764;48.794;8.326;2022-08-20T05:53:32;4.97;;;4.47;;
5483;SDS011;2764;48.794;8.326;2022-08-20T05:54:34;4.43;;;4.13;;
5483;SDS011;2764;48.794;8.326;2022-08-20T05:55:38;4.23;;;3.93;;
5483;SDS011;2764;48.794;8.326;2022-08-20T05:56:40;4.20;;;3.90;;
5483;SDS011;2764;48.794;8.326;2022-08-20T05:57:42;7.00;;;4.00;;
5483;SDS011;2764;48.794;8.326;2022-08-20T05:58:43;6.13;;;4.27;;
5483;SDS011;2764;48.794;8.326;2022-08-20T05:59:45;5.17;;;4.70;;
5483;SDS011;2764;48.794;8.326;2022-08-20T06:00:48;5.03;;;4.57;;
5483;SDS011;2764;48.794;8.326;2022-08-20T06:01:50;6.23;;;3.97;;
5483;SDS011;2764;48.794;8.326;2022-08-20T06:02:53;5.10;;;4.57;;
5483;SDS011;2764;48.794;8.326;2022-08-20T06:04:14;5.27;;;3.83;;
5483;SDS011;2764;48.794;8.326;2022-08-20T06:05:25;4.50;;;4.10;;
5483;SDS011;2764;48.794;8.326;2022-08-20T06:06:27;4.00;;;3.70;;
5483;SDS011;2764;48.794;8.326;2022-08-20T06:07:46;4.43;;;4.13;;
5483;SDS011;2764;48.794;8.326;2022-08-20T06:08:48;4.33;;;3.63;;
5483;SDS011;2764;48.794;8.326;2022-08-20T06:09:51;11.80;;;3.60;;
5483;SDS011;2764;48.794;8.326;2022-08-20T06:10:53;5.00;;;4.17;;
5483;SDS011;2764;48.794;8.326;2022-08-20T06:11:56;4.17;;;3.87;;
5483;SDS011;2764;48.794;8.326;2022-08-20T06:12:59;3.90;;;3.70;;
5483;SDS011;2764;48.794;8.326;2022-08-20T06:14:03;3.60;;;3.33;;
5483;SDS011;2764;48.794;8.326;2022-08-20T06:15:05;3.80;;;3.60;;
5483;SDS011;2764;48.794;8.326;2022-08-20T06:16:07;3.37;;;3.17;;
5483;SDS011;2764;48.794;8.326;2022-08-20T06:17:13;6.00;;;3.70;;
5483;SDS011;2764;48.794;8.326;2022-08-20T06:18:17;10.37;;;3.67;;
5483;SDS011;2764;48.794;8.326;2022-08-20T06:19:28;6.07;;;3.60;;
5483;SDS011;2764;48.794;8.326;2022-08-20T06:20:36;4.93;;;4.27;;
5483;SDS011;2764;48.794;8.326;2022-08-20T06:21:38;3.10;;;3.00;;
5483;SDS011;2764;48.794;8.326;2022-08-20T06:22:41;4.67;;;3.90;;
5483;SDS011;2764;48.794;8.326;2022-08-20T06:23:42;5.97;;;4.43;;
5483;SDS011;2764;48.794;8.326;2022-08-20T06:25:00;8.30;;;3.93;;
5483;SDS011;2764;48.794;8.326;2022-08-20T06:26:03;3.37;;;3.27;;
5483;SDS011;2764;48.794;8.326;2022-08-20T06:27:11;6.30;;;3.53;;
5483;SDS011;2764;48.794;8.326;2022-08-20T06:28:16;7.40;;;3.63;;
5483;SDS011;2764;48.794;8.326;2022-08-20T06:29:17;4.10;;;3.80;;
5483;SDS011;2764;48.794;8.326;2022-08-20T06:30:19;3.33;;;3.23;;
5483;SDS011;2764;48.794;8.326;2022-08-20T06:31:21;4.03;;;3.73;;
5483;SDS011;2764;48.794;8.326;2022-08-20T06:32:22;4.37;;;3.97;;
5483;SDS011;2764;48.794;8.326;2022-08-20T06:33:33;4.73;;;3.97;;
5483;SDS011;2764;48.794;8.326;2022-08-20T06:34:34;4.33;;;3.93;;
5483;SDS011;2764;48.794;8.326;2022-08-20T06:35:36;8.50;;;4.40;;
5483;SDS011;2764;48.794;8.326;2022-08-20T06:36:38;3.97;;;3.67;;
5483;SDS011;2764;48.794;8.326;2022-08-20T06:37:40;4.20;;;3.80;;
5483;SDS011;2764;48.794;8.326;2022-08-20T06:38:43;4.03;;;3.83;;
5483;SDS011;2764;48.794;8.326;2022-08-20T06:39:46;4.17;;;3.97;;
5483;SDS011;2764;48.794;8.326;2022-08-20T06:40:47;4.90;;;4.40;;
5483;SDS011;2764;48.794;8.326;2022-08-20T06:41:49;7.23;;;4.83;;
5483;SDS011;2764;48.794;8.326;2022-08-20T06:42:53;5.33;;;4.83;;
5483;SDS011;2764;48.794;8.326;2022-08-20T06:43:57;7.00;;;4.17;;
5483;SDS011;2764;48.794;8.326;2022-08-20T06:44:58;16.53;;;4.60;;
5483;SDS011;2764;48.794;8.326;2022-08-20T06:46:00;7.47;;;4.83;;